Time;durP1;ratioP1;P1;durP2;ratioP2;P2;SDS_P1;SDS_P2;PMS_P1;PMS_P2;Temp;Humidity;BMP_temperature;BMP_pressure;BME280_temperature;BME280_humidity;BME280_pressure;Samples;Min_cycle;Max_cycle;Signal;HPM_P1;HPM_P2
2021/09/06 00:00:53;;;;;;;24.87;22.47;;;;;;;7.25;100.00;99994.53;2087813;28;20689;-70
2021/09/06 00:01:54;;;;;;;25.45;22.65;;;;;;;7.26;100.00;99990.03;2088087;28;20227;-69
2021/09/06 00:02:55;;;;;;;26.23;22.50;;;;;;;7.24;100.00;99992.94;2087978;28;20234;-70
2021/09/06 00:03:56;;;;;;;29.38;22.60;;;;;;;7.25;100.00;99991.09;2088141;28;20651;-69
2021/09/06 00:05:00;;;;;;;25.40;22.85;;;;;;;7.24;100.00;99992.94;2088528;28;20230;-69
2021/09/06 00:06:01;;;;;;;25.45;22.85;;;;;;;7.23;100.00;99987.91;2088657;28;20225;-70
2021/09/06 00:07:04;;;;;;;26.93;22.97;;;;;;;7.23;100.00;99983.38;2088709;28;20218;-69
2021/09/06 00:08:05;;;;;;;27.05;23.23;;;;;;;7.22;100.00;99986.28;2088522;28;20966;-70
2021/09/06 00:09:07;;;;;;;26.83;24.20;;;;;;;7.21;100.00;99989.97;2088131;28;20583;-70
2021/09/06 00:10:30;;;;;;;26.35;23.45;;;;;;;7.20;100.00;99991.81;2087576;28;20226;-70
2021/09/06 00:11:32;;;;;;;26.23;23.58;;;;;;;7.20;100.00;99985.72;2088338;28;20214;-70
2021/09/06 00:12:35;;;;;;;26.08;23.55;;;;;;;7.17;100.00;99987.03;2088554;28;20726;-69
2021/09/06 00:13:39;;;;;;;25.77;23.50;;;;;;;7.18;100.00;99990.47;2087798;28;20222;-70
2021/09/06 00:14:39;;;;;;;25.63;23.15;;;;;;;7.17;100.00;99987.03;2087670;28;20234;-69
2021/09/06 00:15:41;;;;;;;25.33;22.90;;;;;;;7.16;100.00;99992.59;2088197;28;20672;-70
2021/09/06 00:16:42;;;;;;;25.63;23.13;;;;;;;7.13;100.00;99991.25;2088107;28;20226;-69
2021/09/06 00:17:44;;;;;;;25.50;23.20;;;;;;;7.13;100.00;99990.44;2088639;28;20234;-69
2021/09/06 00:18:45;;;;;;;25.35;22.85;;;;;;;7.11;100.00;99992.53;2088667;28;20246;-70
2021/09/06 00:19:51;;;;;;;24.33;22.33;;;;;;;7.12;100.00;99994.13;2088675;28;20234;-69
2021/09/06 00:20:53;;;;;;;24.95;22.50;;;;;;;7.08;100.00;99984.03;2088600;28;20315;-70
2021/09/06 00:21:55;;;;;;;24.20;22.05;;;;;;;7.10;100.00;99991.72;2088267;28;20309;-69
2021/09/06 00:22:57;;;;;;;22.85;20.67;;;;;;;7.08;100.00;99991.19;2088646;28;20651;-69
2021/09/06 00:23:58;;;;;;;23.08;20.80;;;;;;;7.09;100.00;99990.94;2088683;28;20233;-70
2021/09/06 00:24:59;;;;;;;23.92;21.50;;;;;;;7.06;100.00;99996.75;2087920;28;20226;-69
2021/09/06 00:26:01;;;;;;;23.17;20.73;;;;;;;7.06;100.00;99990.63;2087939;28;20226;-69
2021/09/06 00:27:01;;;;;;;23.20;21.08;;;;;;;7.05;100.00;99989.03;2089504;28;20306;-70
2021/09/06 00:28:03;;;;;;;23.60;21.43;;;;;;;7.03;100.00;99986.63;2090206;28;20225;-69
2021/09/06 00:29:04;;;;;;;24.15;21.85;;;;;;;7.02;100.00;99989.53;2089385;28;20581;-70
2021/09/06 00:30:07;;;;;;;23.93;21.57;;;;;;;7.02;100.00;99994.81;2081259;28;20229;-70
2021/09/06 00:31:10;;;;;;;23.58;21.30;;;;;;;7.01;100.00;99994.03;2081008;28;20243;-69
2021/09/06 00:32:10;;;;;;;23.67;21.65;;;;;;;6.99;100.00;99995.34;2089651;28;20719;-69
2021/09/06 00:33:15;;;;;;;23.57;21.07;;;;;;;6.97;100.00;99986.84;2089390;28;20592;-70
2021/09/06 00:34:22;;;;;;;22.45;20.38;;;;;;;6.99;100.00;100000.63;2089479;28;20680;-70
2021/09/06 00:35:23;;;;;;;23.00;21.00;;;;;;;6.97;100.00;99986.84;2088998;28;20218;-70
2021/09/06 00:36:24;;;;;;;22.52;20.20;;;;;;;6.99;100.00;99990.03;2089440;28;20592;-70
2021/09/06 00:37:26;;;;;;;22.70;20.50;;;;;;;6.97;100.00;99994.78;2090233;28;20230;-70
2021/09/06 00:38:29;;;;;;;22.08;20.05;;;;;;;6.97;100.00;99998.25;2089416;28;21298;-70
2021/09/06 00:39:29;;;;;;;22.02;20.13;;;;;;;6.95;100.00;99989.75;2081276;28;20235;-69
2021/09/06 00:40:31;;;;;;;21.77;20.00;;;;;;;6.94;100.00;99992.63;2089457;28;20227;-69
2021/09/06 00:41:32;;;;;;;20.85;18.98;;;;;;;6.94;100.00;99995.25;2089418;28;20226;-69
2021/09/06 00:42:33;;;;;;;22.60;20.27;;;;;;;6.93;100.00;99991.00;2081453;28;20302;-69
2021/09/06 00:43:36;;;;;;;21.73;19.80;;;;;;;6.93;100.00;99997.13;2089489;28;20782;-69
2021/09/06 00:44:37;;;;;;;22.63;20.58;;;;;;;6.92;100.00;99995.53;2089797;28;20223;-72
2021/09/06 00:45:38;;;;;;;22.67;20.70;;;;;;;6.88;100.00;99996.28;2090110;28;20570;-70
2021/09/06 00:46:45;;;;;;;22.50;20.20;;;;;;;6.87;100.00;99989.38;2090164;28;20277;-70
2021/09/06 00:47:45;;;;;;;23.77;21.05;;;;;;;6.89;100.00;99997.88;2090193;28;20234;-69
2021/09/06 00:48:47;;;;;;;22.70;20.70;;;;;;;6.88;100.00;100001.59;2089324;28;20361;-72
2021/09/06 00:49:47;;;;;;;23.98;21.65;;;;;;;6.88;100.00;99999.72;2089375;28;20218;-69
2021/09/06 00:50:49;;;;;;;22.73;20.83;;;;;;;6.87;100.00;99997.34;2090218;28;20298;-70
2021/09/06 00:51:50;;;;;;;23.42;21.13;;;;;;;6.84;100.00;100001.25;2090137;28;20680;-70
2021/09/06 00:52:52;;;;;;;22.43;20.47;;;;;;;6.82;100.00;99992.75;2090182;28;20544;-69
2021/09/06 00:53:55;;;;;;;22.30;20.40;;;;;;;6.85;100.00;100000.22;2089633;28;20238;-70
2021/09/06 00:54:55;;;;;;;23.10;21.02;;;;;;;6.83;100.00;100002.31;2089982;28;20226;-69
2021/09/06 00:55:59;;;;;;;22.05;20.20;;;;;;;6.83;100.00;99997.00;2089279;28;20269;-69
2021/09/06 00:57:02;;;;;;;22.83;20.83;;;;;;;6.80;100.00;100000.97;2089296;28;20223;-70
2021/09/06 00:58:05;;;;;;;22.45;20.65;;;;;;;6.80;100.00;99998.31;2089572;28;20219;-70
2021/09/06 00:59:06;;;;;;;23.45;21.20;;;;;;;6.80;100.00;99997.53;2081126;28;20223;-70
2021/09/06 01:00:09;;;;;;;23.03;21.13;;;;;;;6.79;100.00;100002.03;2080846;28;20227;-73
2021/09/06 01:01:10;;;;;;;22.88;21.00;;;;;;;6.79;100.00;100001.22;2089332;28;20257;-69
2021/09/06 01:02:12;;;;;;;23.98;21.77;;;;;;;6.78;100.00;99997.78;2089174;28;20226;-70
2021/09/06 01:03:13;;;;;;;22.92;21.10;;;;;;;6.78;100.00;100004.94;2089343;28;20234;-70
2021/09/06 01:04:17;;;;;;;23.20;21.20;;;;;;;6.78;100.00;99997.78;2089229;28;20547;-70
2021/09/06 01:05:37;;;;;;;24.90;21.90;;;;;;;6.77;100.00;99995.34;2083289;28;20251;-69
2021/09/06 01:06:58;;;;;;;22.48;20.60;;;;;;;6.72;100.00;99998.75;2083057;28;20657;-70
2021/09/06 01:08:31;;;;;;;24.40;22.10;;;;;;;6.73;100.00;99997.69;2084579;28;20309;-70
2021/09/06 01:10:04;;;;;;;23.85;21.33;;;;;;;6.71;100.00;99985.75;2084367;28;20222;-69
2021/09/06 01:11:18;;;;;;;24.15;21.95;;;;;;;6.70;100.00;99992.91;2082841;28;20226;-69
2021/09/06 01:12:46;;;;;;;22.98;20.98;;;;;;;6.69;100.00;99995.78;2086783;28;20223;-69
2021/09/06 01:13:47;;;;;;;23.30;21.40;;;;;;;6.68;100.00;99991.53;2089225;28;20222;-70
2021/09/06 01:14:50;;;;;;;23.27;21.27;;;;;;;6.67;100.00;99993.38;2081008;28;20234;-70
2021/09/06 01:15:53;;;;;;;23.30;21.23;;;;;;;6.64;100.00;99993.88;2089184;28;20708;-70
2021/09/06 01:16:58;;;;;;;24.35;21.20;;;;;;;6.63;100.00;99992.28;2081011;28;20764;-69
2021/09/06 01:17:58;;;;;;;23.00;21.13;;;;;;;6.61;100.00;99991.72;2081193;28;20274;-70
2021/09/06 01:19:02;;;;;;;23.05;20.80;;;;;;;6.63;100.00;99991.47;2081173;28;20217;-70
2021/09/06 01:20:04;;;;;;;23.60;21.50;;;;;;;6.60;100.00;99990.09;2081045;28;20222;-70
2021/09/06 01:21:08;;;;;;;23.23;21.13;;;;;;;6.60;100.00;99987.44;2088281;28;20226;-70
2021/09/06 01:22:37;;;;;;;23.35;21.33;;;;;;;6.57;100.00;99992.47;2088774;28;20669;-70
2021/09/06 01:23:52;;;;;;;23.67;21.17;;;;;;;6.56;100.00;99988.19;2082502;28;20614;-70
2021/09/06 01:25:00;;;;;;;23.42;21.38;;;;;;;6.56;100.00;99991.66;2088770;28;20222;-70
2021/09/06 01:26:02;;;;;;;23.40;21.05;;;;;;;6.54;100.00;99992.97;2089138;28;20242;-70
2021/09/06 01:27:04;;;;;;;24.48;21.80;;;;;;;6.51;100.00;99988.94;2089009;28;20226;-69
2021/09/06 01:28:04;;;;;;;23.23;20.95;;;;;;;6.50;100.00;99996.09;2089062;28;20226;-70
2021/09/06 01:29:07;;;;;;;23.93;21.57;;;;;;;6.50;100.00;99989.97;2089659;28;20222;-71
2021/09/06 01:30:09;;;;;;;23.17;20.92;;;;;;;6.48;100.00;99995.53;2088570;28;20357;-70
2021/09/06 01:31:10;;;;;;;22.88;20.85;;;;;;;6.46;100.00;99988.88;2080714;28;20258;-70
2021/09/06 01:32:19;;;;;;;22.88;20.75;;;;;;;6.44;100.00;99989.13;2081935;28;20265;-69
2021/09/06 01:33:22;;;;;;;23.42;21.15;;;;;;;6.43;100.00;99992.03;2088451;28;20704;-72
2021/09/06 01:34:23;;;;;;;22.92;20.83;;;;;;;6.42;100.00;99990.41;2088903;28;20226;-69
2021/09/06 01:35:31;;;;;;;23.48;21.27;;;;;;;6.39;100.00;99991.69;2081405;28;20234;-70
2021/09/06 01:36:33;;;;;;;23.52;21.27;;;;;;;6.37;100.00;99993.81;2080971;28;20227;-70
2021/09/06 01:37:34;;;;;;;24.40;21.83;;;;;;;6.36;100.00;99991.41;2088543;28;20218;-69
2021/09/06 01:38:35;;;;;;;23.80;21.58;;;;;;;6.36;100.00;99996.72;2089747;28;20593;-70
2021/09/06 01:39:38;;;;;;;23.65;21.48;;;;;;;6.32;100.00;99995.56;2088592;28;20306;-69
2021/09/06 01:40:42;;;;;;;23.45;21.25;;;;;;;6.34;100.00;99998.78;2088974;28;20617;-70
2021/09/06 01:41:48;;;;;;;22.55;20.40;;;;;;;6.32;100.00;99990.28;2081277;28;20245;-70
2021/09/06 01:42:54;;;;;;;23.70;21.50;;;;;;;6.29;100.00;99999.53;2088943;28;20218;-69
2021/09/06 01:43:56;;;;;;;23.40;21.10;;;;;;;6.28;100.00;99999.78;2080667;28;20314;-69
2021/09/06 01:45:01;;;;;;;23.52;21.23;;;;;;;6.27;100.00;99996.31;2088962;28;20230;-69
2021/09/06 01:46:04;;;;;;;23.20;20.88;;;;;;;6.25;100.00;99998.38;2089058;28;20218;-70
2021/09/06 01:47:08;;;;;;;22.30;20.38;;;;;;;6.23;100.00;100006.59;2080536;28;20219;-70
2021/09/06 01:48:10;;;;;;;25.70;21.10;;;;;;;6.22;100.00;99990.94;2088787;28;20263;-69
2021/09/06 01:49:19;;;;;;;21.55;19.60;;;;;;;6.18;100.00;99998.59;2088791;28;20616;-69
2021/09/06 01:50:24;;;;;;;21.80;20.00;;;;;;;6.16;100.00;99995.34;2080921;28;20680;-69
2021/09/06 01:51:30;;;;;;;22.17;19.98;;;;;;;6.17;100.00;100001.50;2081195;28;20604;-70
2021/09/06 01:52:32;;;;;;;23.47;20.67;;;;;;;6.17;100.00;100010.22;2080493;28;20596;-70
2021/09/06 01:53:36;;;;;;;22.95;20.80;;;;;;;6.14;100.00;99992.16;2081017;28;20220;-70
2021/09/06 01:54:37;;;;;;;23.43;21.20;;;;;;;6.13;100.00;99997.69;2080322;28;20286;-73
2021/09/06 01:55:41;;;;;;;23.60;21.45;;;;;;;6.12;100.00;100007.50;2080975;28;20262;-69
2021/09/06 01:56:50;;;;;;;23.88;21.35;;;;;;;6.10;100.00;99998.19;2081201;28;20301;-70
2021/09/06 01:57:51;;;;;;;22.33;20.42;;;;;;;6.10;100.00;100003.50;2081118;28;20223;-69
2021/09/06 01:58:55;;;;;;;23.10;20.80;;;;;;;6.10;100.00;100006.16;2080473;28;20223;-70
2021/09/06 01:59:55;;;;;;;22.38;20.35;;;;;;;6.09;100.00;100007.19;2080489;28;20231;-70
2021/09/06 02:01:00;;;;;;;23.55;21.33;;;;;;;6.06;100.00;100013.75;2088736;28;20728;-69
2021/09/06 02:02:10;;;;;;;23.83;21.50;;;;;;;6.05;100.00;100009.50;2081337;28;20258;-70
2021/09/06 02:03:14;;;;;;;23.38;21.00;;;;;;;6.04;100.00;100007.91;2081094;28;20744;-70
2021/09/06 02:04:24;;;;;;;24.40;21.73;;;;;;;6.02;100.00;100012.66;2081137;28;20227;-70
2021/09/06 02:05:25;;;;;;;22.77;20.67;;;;;;;5.99;100.00;100007.81;2080242;28;20595;-70
2021/09/06 02:06:28;;;;;;;23.30;21.08;;;;;;;5.99;100.00;100015.75;2080653;28;20224;-69
2021/09/06 02:07:37;;;;;;;22.92;20.80;;;;;;;5.97;100.00;100015.22;2088221;28;20219;-71
2021/09/06 02:08:39;;;;;;;23.73;21.00;;;;;;;5.95;100.00;100017.31;2080473;28;20241;-69
2021/09/06 02:09:41;;;;;;;23.17;21.02;;;;;;;5.96;100.00;100021.56;2080293;28;20337;-70
2021/09/06 02:10:49;;;;;;;22.50;20.50;;;;;;;5.92;100.00;100013.31;2088855;28;20302;-70
2021/09/06 02:11:52;;;;;;;22.70;20.75;;;;;;;5.94;100.00;100023.66;2088713;28;20257;-69
2021/09/06 02:12:54;;;;;;;22.73;20.73;;;;;;;5.92;100.00;100023.91;2080148;28;20686;-70
2021/09/06 02:13:56;;;;;;;23.95;21.58;;;;;;;5.90;100.00;100011.88;2088683;28;20313;-69
2021/09/06 02:14:57;;;;;;;23.30;21.20;;;;;;;5.91;100.00;100011.72;2088727;28;20235;-70
2021/09/06 02:15:58;;;;;;;23.50;21.23;;;;;;;5.89;100.00;100015.59;2088653;28;20235;-69
2021/09/06 02:17:05;;;;;;;23.92;21.63;;;;;;;5.88;100.00;100019.28;2088667;28;20236;-70
2021/09/06 02:18:10;;;;;;;22.85;20.75;;;;;;;5.86;100.00;100013.44;2088501;28;20234;-69
2021/09/06 02:19:13;;;;;;;23.30;21.00;;;;;;;5.86;100.00;100014.22;2088874;28;20245;-70
2021/09/06 02:20:18;;;;;;;24.27;22.02;;;;;;;5.84;100.00;100013.69;2080938;28;20224;-71
2021/09/06 02:21:20;;;;;;;24.80;21.83;;;;;;;5.82;100.00;100009.66;2088615;28;20233;-69
2021/09/06 02:22:23;;;;;;;22.92;20.73;;;;;;;5.82;100.00;100021.06;2088139;28;20737;-70
2021/09/06 02:23:31;;;;;;;23.80;21.40;;;;;;;5.81;100.00;100016.00;2081124;28;20688;-69
2021/09/06 02:24:33;;;;;;;23.90;20.52;;;;;;;5.81;100.00;100014.13;2080448;28;20230;-69
2021/09/06 02:25:42;;;;;;;24.30;21.88;;;;;;;5.81;100.00;100013.34;2080829;28;27969;-69
2021/09/06 02:26:44;;;;;;;24.55;22.27;;;;;;;5.80;100.00;100009.09;2088536;28;20222;-69
2021/09/06 02:27:46;;;;;;;25.60;22.58;;;;;;;5.81;100.00;100005.41;2088508;28;20228;-69
2021/09/06 02:28:52;;;;;;;25.15;22.85;;;;;;;5.79;100.00;100010.94;2080537;28;20719;-73
2021/09/06 02:29:55;;;;;;;25.40;22.88;;;;;;;5.79;100.00;100010.13;2088461;28;20280;-69
2021/09/06 02:31:00;;;;;;;25.20;22.83;;;;;;;5.79;100.00;100012.78;2080708;28;20220;-70
2021/09/06 02:32:24;;;;;;;24.65;22.25;;;;;;;5.76;100.00;100003.50;2082954;28;20222;-70
2021/09/06 02:33:38;;;;;;;23.00;21.10;;;;;;;5.75;100.00;100014.31;2088020;28;20857;-70
2021/09/06 02:34:45;;;;;;;23.80;21.75;;;;;;;5.74;100.00;100012.72;2080903;28;20657;-69
2021/09/06 02:35:46;;;;;;;23.77;21.40;;;;;;;5.72;100.00;100015.59;2080349;28;20637;-70
2021/09/06 02:36:48;;;;;;;23.40;21.20;;;;;;;5.73;100.00;100009.25;2088406;28;20226;-70
2021/09/06 02:37:51;;;;;;;24.73;22.33;;;;;;;5.74;100.00;100018.00;2080302;28;20351;-70
2021/09/06 02:38:53;;;;;;;23.45;21.25;;;;;;;5.74;100.00;100015.38;2080036;28;20294;-70
2021/09/06 02:39:54;;;;;;;24.40;22.10;;;;;;;5.73;100.00;100013.72;2080242;28;20281;-69
2021/09/06 02:40:56;;;;;;;25.15;22.67;;;;;;;5.71;100.00;100013.97;2080273;28;20234;-70
2021/09/06 02:41:58;;;;;;;24.20;22.00;;;;;;;5.70;100.00;100019.53;2080148;28;20269;-69
2021/09/06 02:43:05;;;;;;;23.90;21.48;;;;;;;5.67;100.00;100011.03;2080792;28;20246;-70
2021/09/06 02:44:08;;;;;;;24.50;22.23;;;;;;;5.68;100.00;100017.91;2080168;28;20281;-70
2021/09/06 02:45:10;;;;;;;24.47;21.90;;;;;;;5.65;100.00;100010.47;2080103;28;20227;-69
2021/09/06 02:46:14;;;;;;;25.23;22.17;;;;;;;5.66;100.00;100020.00;2088540;28;20234;-70
2021/09/06 02:47:16;;;;;;;23.02;20.85;;;;;;;5.66;100.00;100020.00;2080470;28;20273;-70
2021/09/06 02:48:17;;;;;;;23.98;21.58;;;;;;;5.63;100.00;100017.81;2088423;28;20230;-70
2021/09/06 02:49:18;;;;;;;24.77;22.13;;;;;;;5.65;100.00;100023.69;2079444;28;20227;-70
2021/09/06 02:50:19;;;;;;;23.52;21.42;;;;;;;5.64;100.00;100027.38;2079980;28;20219;-70
2021/09/06 02:51:23;;;;;;;24.08;21.20;;;;;;;5.63;100.00;100017.81;2087947;28;20222;-71
2021/09/06 02:52:25;;;;;;;24.23;21.77;;;;;;;5.62;100.00;100018.88;2080243;28;20231;-69
2021/09/06 02:53:27;;;;;;;24.60;22.40;;;;;;;5.63;100.00;100019.66;2080367;28;20227;-70
2021/09/06 02:54:27;;;;;;;23.45;21.15;;;;;;;5.61;100.00;100009.31;2088345;28;20233;-70
2021/09/06 02:55:29;;;;;;;26.90;21.83;;;;;;;5.61;100.00;100017.28;2080313;28;20223;-69
2021/09/06 02:56:30;;;;;;;24.45;22.02;;;;;;;5.63;100.00;100019.66;2080120;28;20224;-69
2021/09/06 02:57:31;;;;;;;24.63;21.87;;;;;;;5.60;100.00;100020.97;2088416;28;20668;-69
2021/09/06 02:58:35;;;;;;;24.50;21.95;;;;;;;5.59;100.00;100019.34;2088283;28;20755;-70
2021/09/06 02:59:38;;;;;;;24.73;21.33;;;;;;;5.56;100.00;100014.56;2080385;28;20247;-73
2021/09/06 03:00:39;;;;;;;23.55;21.15;;;;;;;5.55;100.00;100014.75;2080053;28;20284;-69
2021/09/06 03:01:40;;;;;;;24.93;21.63;;;;;;;5.54;100.00;100013.16;2080039;28;20223;-69
2021/09/06 03:02:41;;;;;;;23.40;21.25;;;;;;;5.51;100.00;100014.47;2088328;28;20249;-71
2021/09/06 03:03:43;;;;;;;23.50;21.17;;;;;;;5.49;100.00;100008.59;2088222;28;20226;-70
2021/09/06 03:04:47;;;;;;;23.48;21.38;;;;;;;5.49;100.00;100018.38;2080252;28;20230;-69
2021/09/06 03:05:51;;;;;;;24.25;21.65;;;;;;;5.47;100.00;100010.66;2080086;28;20587;-69
2021/09/06 03:06:54;;;;;;;25.15;22.55;;;;;;;5.46;100.00;100011.72;2080209;28;20227;-69
2021/09/06 03:07:57;;;;;;;25.55;21.92;;;;;;;5.46;100.00;100014.34;2088330;28;20235;-69
2021/09/06 03:08:59;;;;;;;24.77;21.80;;;;;;;5.46;100.00;100011.72;2088217;28;20653;-70
2021/09/06 03:10:04;;;;;;;23.10;20.90;;;;;;;5.44;100.00;100011.16;2080341;28;20310;-70
2021/09/06 03:11:09;;;;;;;24.40;21.88;;;;;;;5.44;100.00;100010.34;2080005;28;20301;-69
2021/09/06 03:12:11;;;;;;;24.30;21.80;;;;;;;5.42;100.00;100009.78;2080195;28;20228;-70
2021/09/06 03:13:18;;;;;;;24.95;22.05;;;;;;;5.42;100.00;100012.44;2080858;28;20577;-69
2021/09/06 03:14:23;;;;;;;23.50;21.42;;;;;;;5.42;100.00;100020.38;2088274;28;20219;-70
2021/09/06 03:15:26;;;;;;;24.20;21.80;;;;;;;5.38;100.00;100014.75;2079879;28;20227;-69
2021/09/06 03:16:30;;;;;;;25.02;22.30;;;;;;;5.38;100.00;100012.91;2080449;28;20320;-69
2021/09/06 03:17:34;;;;;;;24.65;22.33;;;;;;;5.34;100.00;100009.13;2080286;28;20227;-69
2021/09/06 03:18:36;;;;;;;24.75;22.33;;;;;;;5.37;100.00;100016.59;2080006;28;20256;-70
2021/09/06 03:20:00;;;;;;;23.95;21.75;;;;;;;5.37;100.00;100015.78;2082431;28;20276;-70
2021/09/06 03:21:02;;;;;;;24.08;21.63;;;;;;;5.35;100.00;100009.94;2080106;28;20766;-70
2021/09/06 03:22:04;;;;;;;23.70;21.38;;;;;;;5.36;100.00;100014.19;2079963;28;20223;-69
2021/09/06 03:23:05;;;;;;;24.33;21.92;;;;;;;5.36;100.00;100019.47;2088202;28;20227;-69
2021/09/06 03:24:06;;;;;;;23.97;21.60;;;;;;;5.34;100.00;100016.28;2088235;28;20305;-70
2021/09/06 03:25:08;;;;;;;24.77;22.20;;;;;;;5.34;100.00;100013.63;2079467;28;20230;-70
2021/09/06 03:26:11;;;;;;;28.13;22.67;;;;;;;5.33;100.00;100012.03;2088221;28;20306;-70
2021/09/06 03:27:14;;;;;;;24.60;22.27;;;;;;;5.32;100.00;100019.16;2087929;28;20302;-70
2021/09/06 03:28:16;;;;;;;25.55;22.95;;;;;;;5.33;100.00;100019.97;2080220;28;20689;-69
2021/09/06 03:29:18;;;;;;;24.80;22.30;;;;;;;5.32;100.00;100013.88;2080264;28;20230;-70
2021/09/06 03:30:22;;;;;;;24.75;22.45;;;;;;;5.34;100.00;100021.56;2079997;28;20239;-69
2021/09/06 03:31:25;;;;;;;25.08;22.75;;;;;;;5.34;100.00;100016.28;2079902;28;20235;-70
2021/09/06 03:32:30;;;;;;;25.95;22.98;;;;;;;5.33;100.00;100014.66;2088168;28;20288;-70
2021/09/06 03:33:34;;;;;;;24.70;22.20;;;;;;;5.34;100.00;100018.91;2079908;28;20292;-69
2021/09/06 03:34:36;;;;;;;27.60;22.52;;;;;;;5.33;100.00;100014.66;2080052;28;20230;-70
2021/09/06 03:35:40;;;;;;;24.17;21.75;;;;;;;5.34;100.00;100016.28;2087181;28;20317;-70
2021/09/06 03:36:43;;;;;;;23.98;21.50;;;;;;;5.32;100.00;100007.78;2080063;28;20227;-70
2021/09/06 03:37:51;;;;;;;26.75;23.08;;;;;;;5.31;100.00;100011.47;2080563;28;20274;-70
2021/09/06 03:38:56;;;;;;;24.90;22.40;;;;;;;5.32;100.00;100015.72;2080127;28;20228;-70
2021/09/06 03:40:01;;;;;;;25.02;21.65;;;;;;;5.31;100.00;100016.75;2080255;28;20258;-70
2021/09/06 03:41:03;;;;;;;24.52;22.10;;;;;;;5.29;100.00;100013.53;2087814;28;20284;-70
2021/09/06 03:42:10;;;;;;;24.55;22.15;;;;;;;5.31;100.00;100019.41;2079961;28;20623;-70
2021/09/06 03:43:16;;;;;;;24.63;22.10;;;;;;;5.30;100.00;100012.47;2080746;28;20227;-70
2021/09/06 03:44:19;;;;;;;27.67;24.77;;;;;;;5.29;100.00;100018.81;2088099;28;20298;-69
2021/09/06 03:45:22;;;;;;;26.05;23.58;;;;;;;5.30;100.00;100018.59;2088936;28;20665;-70
2021/09/06 03:46:27;;;;;;;26.80;24.20;;;;;;;5.29;100.00;100013.53;2087629;28;20238;-69
2021/09/06 03:47:34;;;;;;;25.58;22.98;;;;;;;5.30;100.00;100023.91;2080162;28;20705;-69
2021/09/06 03:48:38;;;;;;;27.13;24.30;;;;;;;5.28;100.00;100018.00;2080077;28;20231;-70
2021/09/06 03:49:43;;;;;;;25.42;22.70;;;;;;;5.29;100.00;100024.09;2087590;28;20681;-70
2021/09/06 03:50:45;;;;;;;25.98;23.33;;;;;;;5.29;100.00;100024.91;2087890;28;20218;-70
2021/09/06 03:51:47;;;;;;;26.08;23.48;;;;;;;5.29;100.00;100024.91;2079845;28;20219;-69
2021/09/06 03:52:51;;;;;;;24.88;22.40;;;;;;;5.26;100.00;100017.47;2080314;28;20231;-70
2021/09/06 03:53:56;;;;;;;25.45;22.95;;;;;;;5.26;100.00;100024.59;2079555;28;20227;-69
2021/09/06 03:54:59;;;;;;;26.00;23.33;;;;;;;5.26;100.00;100019.31;2080128;28;20306;-70
2021/09/06 03:56:02;;;;;;;25.75;22.92;;;;;;;5.26;100.00;100019.31;2079863;28;20644;-70
2021/09/06 03:57:09;;;;;;;24.60;22.00;;;;;;;5.25;100.00;100018.50;2087546;28;20218;-69
2021/09/06 03:58:11;;;;;;;24.42;22.08;;;;;;;5.24;100.00;100022.19;2079745;28;20310;-69
2021/09/06 03:59:13;;;;;;;25.85;23.02;;;;;;;5.24;100.00;100021.38;2087900;28;20271;-69
2021/09/06 04:00:19;;;;;;;26.13;23.38;;;;;;;5.23;100.00;100019.78;2080202;28;20246;-69
2021/09/06 04:01:21;;;;;;;25.23;22.73;;;;;;;5.23;100.00;100025.06;2087835;28;20276;-70
2021/09/06 04:02:25;;;;;;;25.75;22.15;;;;;;;5.22;100.00;100018.97;2087393;28;20272;-70
2021/09/06 04:03:29;;;;;;;23.98;21.45;;;;;;;5.23;100.00;100023.22;2080082;28;20230;-69
2021/09/06 04:04:32;;;;;;;25.13;22.42;;;;;;;5.22;100.00;100018.97;2079667;28;20219;-69
2021/09/06 04:05:36;;;;;;;28.83;22.80;;;;;;;5.22;100.00;100015.53;2080143;28;20577;-70
2021/09/06 04:06:40;;;;;;;25.55;22.92;;;;;;;5.23;100.00;100025.06;2079547;28;20332;-70
2021/09/06 04:07:46;;;;;;;30.85;22.88;;;;;;;5.24;100.00;100026.69;2087947;28;20227;-69
2021/09/06 04:08:49;;;;;;;26.50;23.70;;;;;;;5.24;100.00;100021.38;2079732;28;20621;-69
2021/09/06 04:09:51;;;;;;;25.33;22.65;;;;;;;5.24;100.00;100018.75;2079676;28;20239;-70
2021/09/06 04:10:53;;;;;;;26.47;22.47;;;;;;;5.22;100.00;100018.19;2079184;28;20306;-72
2021/09/06 04:11:58;;;;;;;25.58;23.08;;;;;;;5.22;100.00;100016.34;2080159;28;20225;-70
2021/09/06 04:12:59;;;;;;;27.00;22.83;;;;;;;5.23;100.00;100023.22;2079633;28;20293;-70
2021/09/06 04:14:01;;;;;;;24.83;22.20;;;;;;;5.24;100.00;100021.38;2079839;28;20257;-70
2021/09/06 04:15:09;;;;;;;26.10;23.30;;;;;;;5.24;100.00;100018.75;2080008;28;20223;-69
2021/09/06 04:16:11;;;;;;;25.98;23.38;;;;;;;5.20;100.00;100010.47;2079814;28;20223;-70
2021/09/06 04:17:15;;;;;;;25.00;22.50;;;;;;;5.24;100.00;100024.03;2079826;28;20221;-70
2021/09/06 04:18:18;;;;;;;24.98;22.48;;;;;;;5.23;100.00;100025.88;2080102;28;20744;-69
2021/09/06 04:19:20;;;;;;;30.45;23.45;;;;;;;5.24;100.00;100022.19;2087849;28;20302;-71
2021/09/06 04:20:21;;;;;;;26.75;23.95;;;;;;;5.26;100.00;100028.03;2079965;28;20250;-69
2021/09/06 04:21:24;;;;;;;27.48;24.25;;;;;;;5.24;100.00;100024.84;2079257;28;20281;-70
2021/09/06 04:22:24;;;;;;;30.73;24.75;;;;;;;5.25;100.00;100023.00;2079838;28;20306;-69
2021/09/06 04:23:28;;;;;;;29.42;25.30;;;;;;;5.25;100.00;100026.44;2079855;28;20285;-70
2021/09/06 04:24:33;;;;;;;29.58;26.35;;;;;;;5.25;100.00;100034.38;2080220;28;20219;-70
2021/09/06 04:25:34;;;;;;;29.77;25.85;;;;;;;5.26;100.00;100030.69;2079612;28;20250;-69
2021/09/06 04:26:37;;;;;;;28.35;25.35;;;;;;;5.27;100.00;100031.47;2079778;28;20229;-70
2021/09/06 04:27:40;;;;;;;30.85;25.77;;;;;;;5.29;100.00;100032.03;2079541;28;20250;-70
2021/09/06 04:28:47;;;;;;;32.53;25.15;;;;;;;5.28;100.00;100028.59;2080195;28;20219;-69
2021/09/06 04:29:48;;;;;;;30.52;26.40;;;;;;;5.29;100.00;100035.50;2079543;28;20235;-70
2021/09/06 04:30:51;;;;;;;28.85;25.85;;;;;;;5.31;100.00;100037.94;2079747;28;20285;-69
2021/09/06 04:32:00;;;;;;;29.23;25.90;;;;;;;5.33;100.00;100038.47;2080452;28;20643;-70
2021/09/06 04:33:03;;;;;;;28.23;25.40;;;;;;;5.32;100.00;100031.59;2087842;28;20297;-69
2021/09/06 04:34:05;;;;;;;28.25;25.35;;;;;;;5.34;100.00;100034.78;2079492;28;20277;-69
2021/09/06 04:35:06;;;;;;;28.73;25.42;;;;;;;5.33;100.00;100036.63;2079794;28;20234;-70
2021/09/06 04:36:11;;;;;;;28.20;24.95;;;;;;;5.35;100.00;100028.47;2079353;28;20219;-69
2021/09/06 04:37:17;;;;;;;36.28;24.48;;;;;;;5.38;100.00;100028.78;2080527;28;20224;-69
2021/09/06 04:38:21;;;;;;;27.67;24.90;;;;;;;5.40;100.00;100031.22;2079816;28;20223;-69
2021/09/06 04:39:21;;;;;;;27.55;24.55;;;;;;;5.41;100.00;100032.00;2079166;28;20685;-72
2021/09/06 04:40:25;;;;;;;27.40;24.45;;;;;;;5.41;100.00;100030.16;2087963;28;20579;-69
2021/09/06 04:41:27;;;;;;;33.28;26.10;;;;;;;5.45;100.00;100039.22;2079694;28;20390;-70
2021/09/06 04:42:30;;;;;;;30.08;25.48;;;;;;;5.47;100.00;100033.69;2087601;28;20251;-70
2021/09/06 04:43:35;;;;;;;31.58;26.52;;;;;;;5.46;100.00;100034.72;2079692;28;20310;-69
2021/09/06 04:44:39;;;;;;;31.05;26.40;;;;;;;5.48;100.00;100033.47;2087309;28;20261;-70
2021/09/06 04:45:42;;;;;;;31.45;26.30;;;;;;;5.50;100.00;100038.53;2079480;28;20281;-70
2021/09/06 04:46:44;;;;;;;32.13;26.58;;;;;;;5.52;100.00;100037.22;2079717;28;20700;-70
2021/09/06 04:47:48;;;;;;;28.50;25.42;;;;;;;5.54;100.00;100040.44;2079648;28;20223;-70
2021/09/06 04:48:52;;;;;;;38.63;26.33;;;;;;;5.55;100.00;100044.69;2079771;28;20219;-69
2021/09/06 04:49:55;;;;;;;32.08;25.52;;;;;;;5.56;100.00;100037.53;2079244;28;20680;-70
2021/09/06 04:50:57;;;;;;;29.77;25.50;;;;;;;5.57;100.00;100041.81;2087586;28;20218;-70
2021/09/06 04:52:03;;;;;;;29.17;25.92;;;;;;;5.58;100.00;100043.44;2079812;28;20216;-69